Time;durP1;ratioP1;P1;durP2;ratioP2;P2;SDS_P1;SDS_P2;PMS_P1;PMS_P2;Temp;Humidity;BMP_temperature;BMP_pressure;BME280_temperature;BME280_humidity;BME280_pressure;Samples;Min_cycle;Max_cycle;Signal;HPM_P1;HPM_P2
2022/01/09 00:02:15;;;;;;;1.90;1.50;;;9.50;78.20;;;-142.21;100.00;112049.66;4968065;28;20522;-77
2022/01/09 00:04:43;;;;;;;0.67;0.67;;;9.60;78.40;;;-142.21;100.00;112049.66;4971781;28;20455;-78
2022/01/09 00:07:10;;;;;;;1.20;1.10;;;9.60;77.90;;;-142.21;100.00;112049.66;4971008;28;20849;-79
2022/01/09 00:09:41;;;;;;;1.70;1.10;;;9.50;77.90;;;-142.21;100.00;112049.66;4963484;28;20973;-78
2022/01/09 00:12:09;;;;;;;0.90;0.63;;;9.60;77.90;;;-142.21;100.00;112049.66;4983631;28;20963;-78
2022/01/09 00:14:37;;;;;;;1.40;0.97;;;9.60;78.60;;;-142.21;100.00;112049.66;4967959;28;20469;-77
2022/01/09 00:17:06;;;;;;;2.87;1.30;;;9.70;77.60;;;-142.21;100.00;112049.66;4963696;28;20467;-77
2022/01/09 00:19:36;;;;;;;0.77;0.70;;;9.80;77.80;;;-142.21;100.00;112049.66;4962520;28;20502;-78
2022/01/09 00:22:04;;;;;;;0.93;0.93;;;9.70;77.60;;;-142.21;100.00;112049.66;4963533;28;20539;-77
2022/01/09 00:24:31;;;;;;;1.27;1.10;;;9.80;77.80;;;-142.21;100.00;112049.66;4968315;28;20853;-77
2022/01/09 00:27:00;;;;;;;3.50;1.10;;;9.80;77.60;;;-142.21;100.00;112049.66;4969647;28;20518;-78
2022/01/09 00:29:27;;;;;;;1.13;1.03;;;9.80;77.60;;;-142.21;100.00;112049.66;4972432;28;20816;-77
2022/01/09 00:31:55;;;;;;;0.70;0.70;;;9.70;77.80;;;-142.21;100.00;112049.66;4971963;28;20558;-77
2022/01/09 00:34:26;;;;;;;0.70;0.70;;;9.70;77.90;;;-142.21;100.00;112049.66;4972131;28;20455;-78
2022/01/09 00:36:55;;;;;;;0.50;0.50;;;9.70;78.40;;;-142.21;100.00;112049.66;4962602;28;20572;-79
2022/01/09 00:39:23;;;;;;;0.40;0.40;;;9.70;78.30;;;-142.21;100.00;112049.66;4971954;28;20980;-78
2022/01/09 00:41:50;;;;;;;0.20;0.20;;;9.60;79.20;;;-142.21;100.00;112049.66;4970551;28;20567;-78
2022/01/09 00:44:19;;;;;;;0.20;0.20;;;9.70;79.40;;;-142.21;100.00;112049.66;4969714;28;20807;-78
2022/01/09 00:46:46;;;;;;;0.40;0.40;;;9.60;79.30;;;-142.21;100.00;112049.66;4962452;28;20456;-79
2022/01/09 00:49:13;;;;;;;0.73;0.30;;;9.70;79.40;;;-142.21;100.00;112049.66;4965323;28;20448;-79
2022/01/09 00:51:41;;;;;;;0.63;0.60;;;9.80;79.70;;;-142.21;100.00;112049.66;4969983;28;20448;-78
2022/01/09 00:54:14;;;;;;;0.47;0.43;;;9.70;80.00;;;-142.21;100.00;112049.66;4970822;28;20464;-78
2022/01/09 00:56:41;;;;;;;0.70;0.70;;;9.80;79.80;;;-142.21;100.00;112049.66;4966370;28;20586;-79
2022/01/09 00:59:08;;;;;;;0.60;0.50;;;9.70;79.60;;;-142.21;100.00;112049.66;4964404;28;20520;-78
2022/01/09 01:01:37;;;;;;;0.50;0.50;;;9.80;79.80;;;-142.21;100.00;112049.66;4956202;28;20483;-81
2022/01/09 01:04:05;;;;;;;0.43;0.43;;;9.80;80.20;;;-142.21;100.00;112049.66;4956647;28;20468;-79
2022/01/09 01:06:32;;;;;;;0.20;0.20;;;9.80;79.80;;;-142.21;100.00;112049.66;4954872;28;20452;-79
2022/01/09 01:08:59;;;;;;;0.40;0.40;;;9.80;79.60;;;-142.21;100.00;112049.66;4955772;28;20527;-78
2022/01/09 01:11:26;;;;;;;0.60;0.60;;;9.90;79.60;;;-142.21;100.00;112049.66;4973429;28;20452;-78
2022/01/09 01:13:54;;;;;;;0.40;0.40;;;10.00;78.10;;;-142.21;100.00;112049.66;4973061;28;20534;-79
2022/01/09 01:16:21;;;;;;;0.30;0.30;;;10.00;77.70;;;-142.21;100.00;112049.66;4977118;28;20533;-78
2022/01/09 01:18:50;;;;;;;0.63;0.60;;;10.00;77.50;;;-142.21;100.00;112049.66;4963216;28;20483;-79
2022/01/09 01:21:17;;;;;;;0.23;0.23;;;10.00;77.20;;;-142.21;100.00;112049.66;4976067;28;20950;-79
2022/01/09 01:23:44;;;;;;;0.60;0.57;;;10.10;77.90;;;-142.21;100.00;112049.66;4976998;28;20538;-78
2022/01/09 01:26:11;;;;;;;0.40;0.40;;;10.10;77.40;;;-142.21;100.00;112049.66;4976422;28;20472;-78
2022/01/09 01:28:39;;;;;;;1.73;1.00;;;10.20;77.40;;;-142.21;100.00;112049.66;4983851;28;20533;-79
2022/01/09 01:31:06;;;;;;;0.30;0.30;;;10.20;77.40;;;-142.21;100.00;112049.66;4996205;28;20955;-79
2022/01/09 01:33:33;;;;;;;0.57;0.57;;;10.20;77.30;;;-142.21;100.00;112049.66;4995663;28;21075;-80
2022/01/09 01:36:02;;;;;;;0.30;0.30;;;10.20;77.20;;;-142.21;100.00;112049.66;4996156;28;20585;-78
2022/01/09 01:38:29;;;;;;;0.40;0.40;;;10.30;77.30;;;-142.21;100.00;112049.66;4992843;28;20437;-80
2022/01/09 01:40:58;;;;;;;0.30;0.30;;;10.30;77.10;;;-142.21;100.00;112049.66;4976580;28;20463;-78
2022/01/09 01:43:27;;;;;;;0.30;0.30;;;10.30;77.30;;;-142.21;100.00;112049.66;4937017;29;20501;-78
2022/01/09 01:45:55;;;;;;;0.33;0.33;;;10.30;77.50;;;-142.21;100.00;112049.66;4926051;29;20453;-79
2022/01/09 01:48:22;;;;;;;1.23;0.50;;;10.30;76.90;;;-142.21;100.00;112049.66;4941991;29;20498;-79
2022/01/09 01:50:50;;;;;;;0.40;0.40;;;10.30;77.10;;;-142.21;100.00;112049.66;4938101;29;20882;-77
2022/01/09 01:53:21;;;;;;;0.30;0.30;;;10.20;77.20;;;-142.21;100.00;112049.66;4937947;29;20536;-78
2022/01/09 01:55:52;;;;;;;0.60;0.60;;;10.20;77.50;;;-142.21;100.00;112049.66;4933626;29;20572;-78
2022/01/09 01:58:21;;;;;;;0.70;0.50;;;10.20;77.30;;;-142.21;100.00;112049.66;4937108;29;20418;-79
2022/01/09 02:00:48;;;;;;;0.60;0.60;;;10.20;77.40;;;-142.21;100.00;112049.66;4929408;29;20485;-78
2022/01/09 02:03:16;;;;;;;0.97;0.60;;;10.20;77.30;;;-142.21;100.00;112049.66;4933553;29;20458;-80
2022/01/09 02:05:45;;;;;;;0.80;0.60;;;10.20;77.10;;;-142.21;100.00;112049.66;4938273;29;20481;-78
2022/01/09 02:08:13;;;;;;;1.40;0.40;;;10.20;77.20;;;-142.21;100.00;112049.66;4938156;29;20553;-79
2022/01/09 02:10:45;;;;;;;0.70;0.60;;;10.30;76.80;;;-142.21;100.00;112049.66;4936914;29;20540;-78
2022/01/09 02:13:13;;;;;;;0.83;0.43;;;10.20;76.90;;;-142.21;100.00;112049.66;4937454;29;20430;-79
2022/01/09 02:15:46;;;;;;;0.73;0.73;;;10.20;76.90;;;-142.21;100.00;112049.66;4937423;29;20982;-79
2022/01/09 02:18:18;;;;;;;0.47;0.47;;;10.30;76.90;;;-142.21;100.00;112049.66;4937599;29;20591;-79
2022/01/09 02:20:49;;;;;;;0.47;0.47;;;10.30;76.50;;;-142.21;100.00;112049.66;4938029;29;20540;-78
2022/01/09 02:23:18;;;;;;;0.43;0.43;;;10.20;76.40;;;-142.21;100.00;112049.66;4937481;29;21009;-79
2022/01/09 02:25:48;;;;;;;1.00;0.70;;;10.30;76.30;;;-142.21;100.00;112049.66;4937268;29;20450;-80
2022/01/09 02:28:17;;;;;;;0.50;0.50;;;10.30;76.10;;;-142.21;100.00;112049.66;4936233;29;20509;-79
2022/01/09 02:30:45;;;;;;;0.90;0.60;;;10.40;76.30;;;-142.21;100.00;112049.66;4936352;29;20485;-79
2022/01/09 02:33:18;;;;;;;0.80;0.47;;;10.30;76.10;;;-142.21;100.00;112049.66;4930687;29;20923;-77
2022/01/09 02:35:51;;;;;;;0.77;0.57;;;10.20;75.70;;;-142.21;100.00;112049.66;4938040;29;20474;-79
2022/01/09 02:38:19;;;;;;;0.37;0.37;;;10.30;76.30;;;-142.21;100.00;112049.66;4920169;29;20434;-79
2022/01/09 02:40:52;;;;;;;0.60;0.60;;;10.30;76.00;;;-142.21;100.00;112049.66;4937229;29;20488;-78
2022/01/09 02:43:19;;;;;;;1.23;0.47;;;10.30;76.20;;;-142.21;100.00;112049.66;4926673;29;20561;-79
2022/01/09 02:45:53;;;;;;;0.50;0.50;;;10.30;75.70;;;-142.21;100.00;112049.66;4936966;29;20449;-79
2022/01/09 02:48:20;;;;;;;0.60;0.57;;;10.30;75.60;;;-142.21;100.00;112049.66;4936284;29;20501;-78
2022/01/09 02:51:00;;;;;;;0.60;0.60;;;10.30;75.70;;;-142.21;100.00;112049.66;4937112;29;20462;-80
2022/01/09 02:53:29;;;;;;;0.50;0.50;;;10.30;75.70;;;-142.21;100.00;112049.66;4936105;29;20560;-77
2022/01/09 02:55:57;;;;;;;0.60;0.50;;;10.30;75.60;;;-142.21;100.00;112049.66;4931226;29;20481;-79
2022/01/09 02:58:24;;;;;;;0.50;0.47;;;10.30;75.50;;;-142.21;100.00;112049.66;4926349;29;20450;-77
2022/01/09 03:00:52;;;;;;;0.40;0.40;;;10.30;76.00;;;-142.21;100.00;112049.66;4935044;29;20453;-79
2022/01/09 03:03:19;;;;;;;0.57;0.57;;;10.20;76.80;;;-142.21;100.00;112049.66;4930292;29;20494;-79
2022/01/09 03:05:48;;;;;;;0.90;0.60;;;10.20;77.00;;;-142.21;100.00;112049.66;4929692;29;20491;-80
2022/01/09 03:08:15;;;;;;;0.50;0.50;;;10.20;78.00;;;-142.21;100.00;112049.66;4934292;29;20458;-80
2022/01/09 03:10:48;;;;;;;0.50;0.50;;;10.20;77.10;;;-142.21;100.00;112049.66;4936293;29;20457;-79
2022/01/09 03:13:15;;;;;;;0.80;0.80;;;10.20;77.50;;;-142.21;100.00;112049.66;4936403;29;20526;-80
2022/01/09 03:15:44;;;;;;;0.60;0.50;;;10.10;77.50;;;-142.21;100.00;112049.66;4936050;29;20481;-78
2022/01/09 03:18:12;;;;;;;0.60;0.60;;;10.20;78.00;;;-142.21;100.00;112049.66;4936139;29;20458;-78
2022/01/09 03:20:41;;;;;;;0.80;0.60;;;10.20;77.70;;;-142.21;100.00;112049.66;4935697;29;20534;-79
2022/01/09 03:23:11;;;;;;;0.40;0.40;;;10.20;78.20;;;-142.21;100.00;112049.66;4933991;29;21014;-79
2022/01/09 03:25:38;;;;;;;0.77;0.50;;;10.20;78.00;;;-142.21;100.00;112049.66;4928181;29;20489;-80
2022/01/09 03:28:06;;;;;;;1.57;0.63;;;10.10;78.50;;;-142.21;100.00;112049.66;4934794;29;20504;-78
2022/01/09 03:30:40;;;;;;;0.40;0.40;;;10.10;78.70;;;-142.21;100.00;112049.66;4929800;29;20450;-79
2022/01/09 03:33:07;;;;;;;0.47;0.47;;;10.10;79.10;;;-142.21;100.00;112049.66;4955430;29;20520;-77
2022/01/09 03:35:36;;;;;;;0.57;0.50;;;10.10;79.10;;;-142.21;100.00;112049.66;4937995;29;20453;-78
2022/01/09 03:38:12;;;;;;;0.77;0.50;;;10.00;79.70;;;-142.21;100.00;112049.66;4934275;29;20457;-78
2022/01/09 03:40:40;;;;;;;0.50;0.50;;;10.00;79.40;;;-142.21;100.00;112049.66;4930495;29;20459;-80
2022/01/09 03:43:07;;;;;;;0.50;0.50;;;10.00;79.30;;;-142.21;100.00;112049.66;4927459;29;20489;-79
2022/01/09 03:45:34;;;;;;;0.60;0.60;;;10.00;80.00;;;-142.21;100.00;112049.66;4934192;29;20537;-79
2022/01/09 03:48:02;;;;;;;1.07;0.70;;;9.90;80.10;;;-142.21;100.00;112049.66;4934299;29;20506;-78
2022/01/09 03:50:35;;;;;;;0.40;0.40;;;9.90;80.00;;;-142.21;100.00;112049.66;4933036;29;20446;-78
2022/01/09 03:53:04;;;;;;;1.17;0.30;;;9.80;80.20;;;-142.21;100.00;112049.66;4935076;29;20524;-79
2022/01/09 03:55:33;;;;;;;0.30;0.30;;;9.70;79.70;;;-142.21;100.00;112049.66;4919463;29;20885;-79
2022/01/09 03:58:00;;;;;;;0.30;0.30;;;9.70;79.90;;;-142.21;100.00;112049.66;4935355;29;20493;-79
2022/01/09 04:00:27;;;;;;;0.60;0.53;;;9.70;79.80;;;-142.21;100.00;112049.66;4935268;29;21142;-79
2022/01/09 04:02:55;;;;;;;1.03;0.50;;;9.60;79.90;;;-142.21;100.00;112049.66;4934996;29;20545;-79
2022/01/09 04:05:22;;;;;;;0.30;0.30;;;9.60;80.30;;;-142.21;100.00;112049.66;4935483;29;20458;-79
2022/01/09 04:07:50;;;;;;;0.50;0.50;;;9.60;80.10;;;-142.21;100.00;112049.66;4926328;29;20509;-79
2022/01/09 04:10:19;;;;;;;0.53;0.50;;;9.60;80.10;;;-142.21;100.00;112049.66;4935462;29;20485;-79
2022/01/09 04:12:51;;;;;;;0.40;0.40;;;9.50;80.10;;;-142.21;100.00;112049.66;4932370;29;20460;-79
2022/01/09 04:15:19;;;;;;;0.40;0.40;;;9.50;80.50;;;-142.21;100.00;112049.66;4935103;29;20441;-80
2022/01/09 04:17:51;;;;;;;0.50;0.50;;;9.60;80.70;;;-142.21;100.00;112049.66;4935353;29;20863;-79
2022/01/09 04:20:27;;;;;;;0.40;0.40;;;9.60;80.50;;;-142.21;100.00;112049.66;4933181;29;20813;-78
2022/01/09 04:22:55;;;;;;;0.67;0.53;;;9.60;80.70;;;-142.21;100.00;112049.66;4933801;29;20473;-79
2022/01/09 04:25:23;;;;;;;0.97;0.70;;;9.60;80.50;;;-142.21;100.00;112049.66;4928561;29;20914;-80
2022/01/09 04:27:58;;;;;;;1.63;0.40;;;9.50;80.50;;;-142.21;100.00;112049.66;4934695;29;20496;-79
2022/01/09 04:30:26;;;;;;;0.47;0.47;;;9.50;80.50;;;-142.21;100.00;112049.66;4934988;29;20786;-79
2022/01/09 04:32:53;;;;;;;1.47;0.47;;;9.50;80.40;;;-142.21;100.00;112049.66;4934963;29;20454;-78
2022/01/09 04:35:20;;;;;;;1.03;0.50;;;9.50;80.20;;;-142.21;100.00;112049.66;4934978;29;20953;-79
2022/01/09 04:37:49;;;;;;;0.43;0.43;;;9.50;80.30;;;-142.21;100.00;112049.66;4934994;29;20533;-79
2022/01/09 04:40:23;;;;;;;0.50;0.37;;;9.50;79.80;;;-142.21;100.00;112049.66;4933227;29;20454;-78
2022/01/09 04:42:54;;;;;;;0.30;0.30;;;9.50;79.70;;;-142.21;100.00;112049.66;4932706;29;20491;-77
2022/01/09 04:45:30;;;;;;;0.30;0.30;;;9.50;79.50;;;-142.21;100.00;112049.66;4933098;29;20560;-78
2022/01/09 04:48:01;;;;;;;1.60;0.40;;;9.50;79.60;;;-142.21;100.00;112049.66;4935046;29;21215;-79
2022/01/09 04:50:31;;;;;;;0.30;0.30;;;9.40;79.50;;;-142.21;100.00;112049.66;4934295;29;20533;-80
2022/01/09 04:53:06;;;;;;;0.50;0.50;;;9.40;79.00;;;-142.21;100.00;112049.66;4926773;29;20450;-80
2022/01/09 04:55:35;;;;;;;0.37;0.37;;;9.40;79.10;;;-142.21;100.00;112049.66;4934777;29;20441;-78
2022/01/09 04:58:09;;;;;;;0.70;0.30;;;9.40;78.80;;;-142.21;100.00;112049.66;4918645;29;20512;-78
2022/01/09 05:00:39;;;;;;;0.60;0.60;;;9.40;79.50;;;-142.21;100.00;112049.66;4933511;29;20453;-78
2022/01/09 05:03:07;;;;;;;0.47;0.33;;;9.30;78.80;;;-142.21;100.00;112049.66;4903482;29;20457;-79
2022/01/09 05:05:41;;;;;;;0.30;0.30;;;9.20;78.30;;;-142.21;100.00;112049.66;4932551;29;20449;-79
2022/01/09 05:08:08;;;;;;;0.30;0.30;;;9.20;78.20;;;-142.21;100.00;112049.66;4953871;29;20533;-80
2022/01/09 05:10:36;;;;;;;0.30;0.30;;;9.00;77.90;;;-142.21;100.00;112049.66;4953334;29;20540;-78
2022/01/09 05:13:03;;;;;;;0.30;0.30;;;8.90;77.90;;;-142.21;100.00;112049.66;4953805;29;20503;-79
2022/01/09 05:15:30;;;;;;;0.43;0.30;;;8.80;78.00;;;-142.21;100.00;112049.66;4953977;29;20535;-79
2022/01/09 05:18:01;;;;;;;0.23;0.23;;;8.80;78.40;;;-142.21;100.00;112049.66;4953922;29;20492;-79
2022/01/09 05:20:36;;;;;;;1.30;0.43;;;8.70;78.50;;;-142.21;100.00;112049.66;4938621;29;20558;-79
2022/01/09 05:23:03;;;;;;;0.30;0.30;;;8.70;79.70;;;-142.21;100.00;112049.66;4933515;29;20544;-77
2022/01/09 05:25:30;;;;;;;0.40;0.40;;;8.60;78.50;;;-142.21;100.00;112049.66;4931939;29;20464;-79
2022/01/09 05:28:04;;;;;;;0.40;0.40;;;8.60;78.50;;;-142.21;100.00;112049.66;4933943;29;20537;-79
2022/01/09 05:30:33;;;;;;;0.77;0.60;;;8.60;78.80;;;-142.21;100.00;112049.66;4898516;29;20860;-78
2022/01/09 05:33:01;;;;;;;0.60;0.60;;;8.60;79.10;;;-142.21;100.00;112049.66;4914949;29;20555;-79
2022/01/09 05:35:29;;;;;;;0.37;0.30;;;8.60;78.90;;;-142.21;100.00;112049.66;4898904;29;20895;-78
2022/01/09 05:37:56;;;;;;;0.50;0.47;;;8.50;78.80;;;-142.21;100.00;112049.66;4915063;29;20542;-79
2022/01/09 05:40:24;;;;;;;0.63;0.63;;;8.50;78.90;;;-142.21;100.00;112049.66;4915452;29;20879;-78
2022/01/09 05:42:51;;;;;;;1.43;0.70;;;8.50;79.20;;;-142.21;100.00;112049.66;4915145;29;20565;-81
2022/01/09 05:45:19;;;;;;;0.50;0.50;;;8.60;79.20;;;-142.21;100.00;112049.66;4915311;29;20455;-79
2022/01/09 05:47:48;;;;;;;0.43;0.43;;;8.60;79.50;;;-142.21;100.00;112049.66;4929842;29;20473;-79
2022/01/09 05:50:17;;;;;;;0.83;0.47;;;8.50;79.40;;;-142.21;100.00;112049.66;4934337;29;20481;-80
2022/01/09 05:52:44;;;;;;;0.53;0.53;;;8.60;79.50;;;-142.21;100.00;112049.66;4934550;29;20481;-79
2022/01/09 05:55:15;;;;;;;0.93;0.63;;;8.60;79.40;;;-142.21;100.00;112049.66;4933936;29;20462;-79
2022/01/09 05:57:43;;;;;;;0.30;0.30;;;8.50;79.30;;;-142.21;100.00;112049.66;4933647;29;20490;-78
2022/01/09 06:00:12;;;;;;;1.00;0.70;;;8.60;79.30;;;-142.21;100.00;112049.66;4931998;29;20454;-79
2022/01/09 06:02:39;;;;;;;1.17;0.80;;;8.50;79.60;;;-142.21;100.00;112049.66;4922312;29;20471;-79
2022/01/09 06:05:13;;;;;;;0.70;0.50;;;8.50;79.60;;;-142.21;100.00;112049.66;4932220;29;20782;-79
2022/01/09 06:07:43;;;;;;;1.43;0.80;;;8.60;79.80;;;-142.21;100.00;112049.66;4937955;29;20493;-77
2022/01/09 06:10:12;;;;;;;0.50;0.50;;;8.50;80.00;;;-142.21;100.00;112049.66;4937039;29;20855;-78
2022/01/09 06:12:40;;;;;;;0.83;0.80;;;8.50;79.50;;;-142.21;100.00;112049.66;4931493;29;20459;-79
2022/01/09 06:15:09;;;;;;;1.63;0.97;;;8.50;79.50;;;-142.21;100.00;112049.66;4926406;29;20450;-79
2022/01/09 06:17:37;;;;;;;0.90;0.80;;;8.50;79.60;;;-142.21;100.00;112049.66;4937298;29;20581;-78
2022/01/09 06:20:06;;;;;;;1.63;0.97;;;8.40;79.50;;;-142.21;100.00;112049.66;4937631;29;20516;-79
2022/01/09 06:22:34;;;;;;;3.03;1.03;;;8.40;79.60;;;-142.21;100.00;112049.66;4937411;29;20454;-79
2022/01/09 06:25:03;;;;;;;1.23;1.00;;;8.40;79.50;;;-142.21;100.00;112049.66;4937022;29;20548;-79
2022/01/09 06:27:30;;;;;;;1.20;1.00;;;8.40;79.80;;;-142.21;100.00;112049.66;4936743;29;20541;-79
2022/01/09 06:29:57;;;;;;;2.47;1.30;;;8.30;79.70;;;-142.21;100.00;112049.66;4937460;29;20540;-78
2022/01/09 06:32:25;;;;;;;1.00;0.83;;;8.30;80.00;;;-142.21;100.00;112049.66;4936595;29;20971;-79
2022/01/09 06:34:52;;;;;;;2.10;1.10;;;8.30;80.30;;;-142.21;100.00;112049.66;4936972;29;20462;-79
2022/01/09 06:37:25;;;;;;;2.00;1.40;;;8.40;80.80;;;-142.21;100.00;112049.66;4933849;29;20569;-78
2022/01/09 06:39:53;;;;;;;1.50;1.13;;;8.40;80.00;;;-142.21;100.00;112049.66;4927252;29;20449;-79
2022/01/09 06:42:28;;;;;;;3.03;1.50;;;8.30;79.70;;;-142.21;100.00;112049.66;4935569;29;20578;-78
2022/01/09 06:44:55;;;;;;;3.27;1.20;;;8.40;79.90;;;-142.21;100.00;112049.66;4956143;29;20484;-77
2022/01/09 06:47:22;;;;;;;2.20;1.53;;;8.40;79.60;;;-142.21;100.00;112049.66;4956231;28;20551;-79
2022/01/09 06:49:50;;;;;;;2.87;1.50;;;8.40;79.60;;;-142.21;100.00;112049.66;4940095;29;20508;-79
2022/01/09 06:52:17;;;;;;;3.60;1.60;;;8.30;79.50;;;-142.21;100.00;112049.66;4937158;29;20947;-77
2022/01/09 06:54:50;;;;;;;4.40;1.67;;;8.30;79.70;;;-142.21;100.00;112049.66;4933227;29;20522;-78
2022/01/09 06:57:18;;;;;;;2.87;1.50;;;8.30;79.50;;;-142.21;100.00;112049.66;4936145;29;20477;-78
2022/01/09 06:59:46;;;;;;;5.07;2.00;;;8.40;79.30;;;-142.21;100.00;112049.66;4934469;29;20513;-79
2022/01/09 07:02:13;;;;;;;4.50;1.93;;;8.40;79.20;;;-142.21;100.00;112049.66;4930527;29;20874;-77
2022/01/09 07:04:42;;;;;;;6.43;2.20;;;8.40;79.10;;;-142.21;100.00;112049.66;4941578;29;20466;-78
2022/01/09 07:07:09;;;;;;;4.47;1.80;;;8.30;79.10;;;-142.21;100.00;112049.66;4935965;29;21184;-79
2022/01/09 07:09:37;;;;;;;2.93;1.80;;;8.30;79.30;;;-142.21;100.00;112049.66;4936792;29;20872;-79
2022/01/09 07:12:07;;;;;;;5.10;2.00;;;8.30;79.30;;;-142.21;100.00;112049.66;4936445;29;20540;-79
2022/01/09 07:14:34;;;;;;;2.83;1.67;;;8.30;79.40;;;-142.21;100.00;112049.66;4936299;29;20457;-78
2022/01/09 07:17:10;;;;;;;4.83;1.97;;;8.40;78.90;;;-142.21;100.00;112049.66;4934615;29;20493;-80
2022/01/09 07:19:38;;;;;;;3.47;1.83;;;8.40;78.40;;;-142.21;100.00;112049.66;4935722;29;20534;-79
2022/01/09 07:22:05;;;;;;;4.37;2.00;;;8.30;78.40;;;-142.21;100.00;112049.66;4932558;29;20501;-78
2022/01/09 07:24:38;;;;;;;4.90;1.90;;;8.30;78.20;;;-142.21;100.00;112049.66;4944148;29;21008;-79
2022/01/09 07:27:07;;;;;;;5.87;2.03;;;8.30;78.10;;;-142.21;100.00;112049.66;4942098;29;20480;-80
2022/01/09 07:29:34;;;;;;;7.63;2.33;;;8.30;78.00;;;-142.21;100.00;112049.66;4936246;29;20509;-79
2022/01/09 07:32:01;;;;;;;8.10;2.23;;;8.40;77.40;;;-142.21;100.00;112049.66;4935600;29;20460;-79
2022/01/09 07:34:30;;;;;;;7.03;2.30;;;8.40;77.40;;;-142.21;100.00;112049.66;4932541;29;20454;-78
2022/01/09 07:36:57;;;;;;;6.93;2.10;;;8.30;76.60;;;-142.21;100.00;112049.66;4916224;29;20490;-79
2022/01/09 07:39:25;;;;;;;6.33;2.00;;;8.30;76.60;;;-142.21;100.00;112049.66;4916971;29;20538;-79
2022/01/09 07:41:52;;;;;;;6.93;2.17;;;8.40;76.70;;;-142.21;100.00;112049.66;4916748;29;20529;-78
2022/01/09 07:44:25;;;;;;;6.13;2.30;;;8.40;76.60;;;-142.21;100.00;112049.66;4918667;29;20839;-78
2022/01/09 07:46:53;;;;;;;6.27;2.10;;;8.50;76.60;;;-142.21;100.00;112049.66;4916822;29;20435;-79
2022/01/09 07:49:20;;;;;;;7.77;2.17;;;8.40;75.90;;;-142.21;100.00;112049.66;4916027;29;20478;-78
2022/01/09 07:51:49;;;;;;;6.20;2.07;;;8.50;75.90;;;-142.21;100.00;112049.66;4916609;29;20486;-79
2022/01/09 07:54:16;;;;;;;5.13;1.80;;;8.50;75.50;;;-142.21;100.00;112049.66;4916141;29;20494;-78
2022/01/09 07:56:43;;;;;;;5.67;1.83;;;8.50;75.60;;;-142.21;100.00;112049.66;4935498;29;20461;-79
2022/01/09 07:59:11;;;;;;;6.70;2.30;;;8.50;75.10;;;-142.21;100.00;112049.66;4934885;29;20580;-80
2022/01/09 08:01:38;;;;;;;4.23;2.07;;;8.50;75.10;;;-142.21;100.00;112049.66;4935695;29;20445;-79
2022/01/09 08:04:11;;;;;;;9.43;2.60;;;8.50;74.80;;;-142.21;100.00;112049.66;4933810;29;20449;-80
2022/01/09 08:06:39;;;;;;;6.83;2.37;;;8.50;74.80;;;-142.21;100.00;112049.66;4932340;29;20441;-79
2022/01/09 08:09:14;;;;;;;7.30;2.53;;;8.50;75.10;;;-142.21;100.00;112049.66;4921856;29;20840;-79
2022/01/09 08:11:41;;;;;;;4.90;2.10;;;8.50;75.40;;;-142.21;100.00;112049.66;4954576;29;20519;-78
2022/01/09 08:14:08;;;;;;;7.93;2.23;;;8.40;75.40;;;-142.21;100.00;112049.66;4953865;29;20452;-78
2022/01/09 08:16:35;;;;;;;7.67;2.40;;;8.40;75.80;;;-142.21;100.00;112049.66;4934847;29;20535;-78
2022/01/09 08:19:03;;;;;;;6.33;2.23;;;8.50;75.70;;;-142.21;100.00;112049.66;4935578;29;20501;-79
2022/01/09 08:21:36;;;;;;;6.40;2.60;;;8.50;75.50;;;-142.21;100.00;112049.66;4934260;29;21006;-78
2022/01/09 08:24:03;;;;;;;5.90;2.23;;;8.60;75.70;;;-142.21;100.00;112049.66;4933621;29;20826;-77
2022/01/09 08:26:35;;;;;;;7.53;2.77;;;8.60;75.40;;;-142.21;100.00;112049.66;4938705;28;20461;-78
2022/01/09 08:29:03;;;;;;;5.57;2.30;;;8.70;74.90;;;-142.21;100.00;112049.66;4921434;29;20480;-78
2022/01/09 08:31:30;;;;;;;7.40;2.20;;;8.70;75.00;;;-142.21;100.00;112049.66;4934477;29;20501;-78
2022/01/09 08:33:57;;;;;;;3.87;2.43;;;8.70;73.80;;;-142.21;100.00;112049.66;4935098;29;20545;-79
2022/01/09 08:36:25;;;;;;;5.20;2.20;;;8.70;74.30;;;-142.21;100.00;112049.66;4927236;29;21024;-79
2022/01/09 08:38:52;;;;;;;5.00;2.60;;;8.70;73.70;;;-142.21;100.00;112049.66;4934745;29;21088;-78
2022/01/09 08:41:19;;;;;;;5.23;2.40;;;8.80;73.80;;;-142.21;100.00;112049.66;4934746;29;20536;-79
2022/01/09 08:43:48;;;;;;;5.57;2.80;;;8.80;73.50;;;-142.21;100.00;112049.66;4934426;29;20497;-80
2022/01/09 08:46:15;;;;;;;4.37;1.93;;;8.80;73.20;;;-142.21;100.00;112049.66;4934795;29;20468;-79
2022/01/09 08:48:45;;;;;;;7.90;2.37;;;8.90;73.10;;;-142.21;100.00;112049.66;4933872;29;21063;-79
2022/01/09 08:51:12;;;;;;;5.33;2.10;;;8.90;73.10;;;-142.21;100.00;112049.66;4935069;29;20450;-81
2022/01/09 08:53:41;;;;;;;6.70;2.50;;;8.80;72.00;;;-142.21;100.00;112049.66;4934131;29;20544;-80
2022/01/09 08:56:09;;;;;;;6.33;3.03;;;8.90;72.20;;;-142.21;100.00;112049.66;4932165;29;20458;-78
2022/01/09 08:58:37;;;;;;;7.47;2.53;;;8.90;72.30;;;-142.21;100.00;112049.66;4927868;29;20486;-79
2022/01/09 09:01:07;;;;;;;7.73;2.70;;;8.90;72.30;;;-142.21;100.00;112049.66;4930678;29;20454;-77
2022/01/09 09:03:36;;;;;;;6.87;2.50;;;9.00;72.40;;;-142.21;100.00;112049.66;4937328;29;20545;-78
2022/01/09 09:06:03;;;;;;;6.80;2.20;;;9.00;71.90;;;-142.21;100.00;112049.66;4934337;29;20469;-79
2022/01/09 09:08:31;;;;;;;8.63;2.30;;;9.00;71.70;;;-142.21;100.00;112049.66;4934952;29;20620;-79
2022/01/09 09:10:58;;;;;;;5.77;2.10;;;9.10;72.00;;;-142.21;100.00;112049.66;4934185;29;20481;-79
2022/01/09 09:13:25;;;;;;;7.77;2.33;;;9.10;72.40;;;-142.21;100.00;112049.66;4934849;29;20453;-79
2022/01/09 09:15:53;;;;;;;6.43;2.33;;;9.20;70.70;;;-142.21;100.00;112049.66;4934382;29;20466;-80
2022/01/09 09:18:22;;;;;;;7.10;2.83;;;9.20;70.70;;;-142.21;100.00;112049.66;4934739;29;20525;-78
2022/01/09 09:20:49;;;;;;;3.77;2.10;;;9.30;70.40;;;-142.21;100.00;112049.66;4934569;29;20449;-79
2022/01/09 09:23:22;;;;;;;6.50;2.37;;;9.40;70.30;;;-142.21;100.00;112049.66;4932646;29;20889;-80
2022/01/09 09:25:50;;;;;;;6.93;2.70;;;9.50;70.20;;;-142.21;100.00;112049.66;4933395;29;20564;-79
2022/01/09 09:28:18;;;;;;;5.90;2.47;;;9.60;69.70;;;-142.21;100.00;112049.66;4933034;29;20484;-77
2022/01/09 09:30:46;;;;;;;8.63;2.50;;;9.60;69.00;;;-142.21;100.00;112049.66;4933588;29;20457;-75
2022/01/09 09:33:13;;;;;;;8.70;3.10;;;9.70;69.60;;;-142.21;100.00;112049.66;4928019;29;20502;-79
2022/01/09 09:35:49;;;;;;;9.03;2.67;;;9.70;69.40;;;-142.21;100.00;112049.66;4932461;29;20971;-77
2022/01/09 09:38:17;;;;;;;8.27;2.47;;;9.70;69.10;;;-142.21;100.00;112049.66;4924947;29;20481;-75
2022/01/09 09:40:44;;;;;;;5.93;2.70;;;9.80;69.60;;;-142.21;100.00;112049.66;4938501;29;20520;-79
2022/01/09 09:43:12;;;;;;;11.23;2.80;;;9.80;69.20;;;-142.21;100.00;112049.66;4937567;29;20569;-78
2022/01/09 09:45:39;;;;;;;7.77;2.70;;;9.90;68.90;;;-142.21;100.00;112049.66;4938670;29;20485;-78
2022/01/09 09:48:06;;;;;;;8.80;2.47;;;9.90;69.00;;;-142.21;100.00;112049.66;4937823;29;20469;-78
2022/01/09 09:50:34;;;;;;;8.17;2.87;;;10.00;67.70;;;-142.21;100.00;112049.66;4938078;29;20505;-75
2022/01/09 09:53:03;;;;;;;5.90;2.40;;;10.10;66.80;;;-142.21;100.00;112049.66;4938527;29;20552;-75
2022/01/09 09:55:30;;;;;;;6.27;2.40;;;10.20;67.30;;;-142.21;100.00;112049.66;4937585;29;20516;-79
2022/01/09 09:57:58;;;;;;;6.37;2.43;;;10.20;67.00;;;-142.21;100.00;112049.66;4937628;29;20493;-80
2022/01/09 10:00:26;;;;;;;5.53;2.33;;;10.40;66.50;;;-142.21;100.00;112049.66;4929780;29;20461;-79
2022/01/09 10:03:01;;;;;;;7.10;2.77;;;10.60;65.90;;;-142.21;100.00;112049.66;4937604;29;20864;-80
2022/01/09 10:05:34;;;;;;;4.50;1.90;;;10.60;64.70;;;-142.21;100.00;112049.66;4937801;29;20453;-78